sensor_id;sensor_type;location;lat;lon;timestamp;P1;durP1;ratioP1;P2;durP2;ratioP2
3811;SDS011;1921;49.368;11.068;2022-11-03T00:02:04;48.10;;;43.90;;
3811;SDS011;1921;49.368;11.068;2022-11-03T00:04:29;48.00;;;44.00;;
3811;SDS011;1921;49.368;11.068;2022-11-03T00:06:55;49.60;;;44.57;;
3811;SDS011;1921;49.368;11.068;2022-11-03T00:09:21;47.47;;;43.47;;
3811;SDS011;1921;49.368;11.068;2022-11-03T00:11:48;48.27;;;43.93;;
3811;SDS011;1921;49.368;11.068;2022-11-03T00:14:15;48.80;;;44.30;;
3811;SDS011;1921;49.368;11.068;2022-11-03T00:16:42;48.70;;;43.90;;
3811;SDS011;1921;49.368;11.068;2022-11-03T00:19:08;49.20;;;44.27;;
3811;SDS011;1921;49.368;11.068;2022-11-03T00:21:35;48.93;;;44.40;;
3811;SDS011;1921;49.368;11.068;2022-11-03T00:24:02;48.03;;;42.97;;
3811;SDS011;1921;49.368;11.068;2022-11-03T00:26:29;50.03;;;45.27;;
3811;SDS011;1921;49.368;11.068;2022-11-03T00:28:58;48.37;;;43.67;;
3811;SDS011;1921;49.368;11.068;2022-11-03T00:31:30;47.23;;;43.13;;
3811;SDS011;1921;49.368;11.068;2022-11-03T00:34:00;47.93;;;43.63;;
3811;SDS011;1921;49.368;11.068;2022-11-03T00:36:32;52.33;;;44.53;;
3811;SDS011;1921;49.368;11.068;2022-11-03T00:38:59;47.67;;;43.60;;
3811;SDS011;1921;49.368;11.068;2022-11-03T00:41:26;48.57;;;44.10;;
3811;SDS011;1921;49.368;11.068;2022-11-03T00:43:52;47.67;;;43.43;;
3811;SDS011;1921;49.368;11.068;2022-11-03T00:46:19;49.27;;;44.97;;
3811;SDS011;1921;49.368;11.068;2022-11-03T00:48:47;47.40;;;43.30;;
3811;SDS011;1921;49.368;11.068;2022-11-03T00:51:18;47.43;;;43.33;;
3811;SDS011;1921;49.368;11.068;2022-11-03T00:53:53;47.17;;;43.17;;
3811;SDS011;1921;49.368;11.068;2022-11-03T00:56:26;48.10;;;42.97;;
3811;SDS011;1921;49.368;11.068;2022-11-03T00:58:56;47.80;;;43.60;;
3811;SDS011;1921;49.368;11.068;2022-11-03T01:01:25;49.83;;;45.33;;
3811;SDS011;1921;49.368;11.068;2022-11-03T01:03:55;48.63;;;44.20;;
3811;SDS011;1921;49.368;11.068;2022-11-03T01:06:42;47.90;;;43.50;;
3811;SDS011;1921;49.368;11.068;2022-11-03T01:09:56;48.00;;;43.80;;
3811;SDS011;1921;49.368;11.068;2022-11-03T01:14:38;48.83;;;44.50;;
3811;SDS011;1921;49.368;11.068;2022-11-03T01:19:44;48.23;;;43.97;;
3811;SDS011;1921;49.368;11.068;2022-11-03T01:22:10;48.43;;;43.53;;
3811;SDS011;1921;49.368;11.068;2022-11-03T01:24:37;47.50;;;43.33;;
3811;SDS011;1921;49.368;11.068;2022-11-03T01:27:05;49.00;;;44.40;;
3811;SDS011;1921;49.368;11.068;2022-11-03T01:29:31;48.80;;;44.07;;
3811;SDS011;1921;49.368;11.068;2022-11-03T01:31:57;48.73;;;44.03;;
3811;SDS011;1921;49.368;11.068;2022-11-03T01:34:23;48.80;;;44.33;;
3811;SDS011;1921;49.368;11.068;2022-11-03T01:36:48;47.87;;;43.57;;
3811;SDS011;1921;49.368;11.068;2022-11-03T01:39:15;48.00;;;43.80;;
3811;SDS011;1921;49.368;11.068;2022-11-03T01:41:43;48.97;;;44.50;;
3811;SDS011;1921;49.368;11.068;2022-11-03T01:49:35;47.50;;;43.30;;
3811;SDS011;1921;49.368;11.068;2022-11-03T01:52:09;48.87;;;44.30;;
3811;SDS011;1921;49.368;11.068;2022-11-03T01:54:47;48.97;;;43.80;;
3811;SDS011;1921;49.368;11.068;2022-11-03T01:57:22;48.77;;;43.97;;
3811;SDS011;1921;49.368;11.068;2022-11-03T01:59:53;47.63;;;43.40;;
3811;SDS011;1921;49.368;11.068;2022-11-03T02:02:22;48.27;;;44.17;;
3811;SDS011;1921;49.368;11.068;2022-11-03T02:04:48;49.97;;;45.10;;
3811;SDS011;1921;49.368;11.068;2022-11-03T02:07:25;49.77;;;44.47;;
3811;SDS011;1921;49.368;11.068;2022-11-03T02:10:04;48.10;;;43.60;;
3811;SDS011;1921;49.368;11.068;2022-11-03T02:12:30;47.40;;;43.40;;
3811;SDS011;1921;49.368;11.068;2022-11-03T02:14:58;48.50;;;44.20;;
3811;SDS011;1921;49.368;11.068;2022-11-03T02:17:38;48.60;;;44.30;;
3811;SDS011;1921;49.368;11.068;2022-11-03T02:20:08;47.57;;;43.53;;
3811;SDS011;1921;49.368;11.068;2022-11-03T02:25:44;47.23;;;43.17;;
3811;SDS011;1921;49.368;11.068;2022-11-03T02:28:17;46.90;;;43.00;;
3811;SDS011;1921;49.368;11.068;2022-11-03T02:31:22;48.67;;;44.37;;
3811;SDS011;1921;49.368;11.068;2022-11-03T02:33:45;46.53;;;42.63;;
3811;SDS011;1921;49.368;11.068;2022-11-03T02:36:39;48.43;;;43.80;;
3811;SDS011;1921;49.368;11.068;2022-11-03T02:39:28;49.70;;;44.30;;
3811;SDS011;1921;49.368;11.068;2022-11-03T02:42:11;49.10;;;44.30;;
3811;SDS011;1921;49.368;11.068;2022-11-03T02:44:38;47.33;;;43.03;;
3811;SDS011;1921;49.368;11.068;2022-11-03T02:47:08;47.80;;;43.70;;
3811;SDS011;1921;49.368;11.068;2022-11-03T02:49:47;47.80;;;43.63;;
3811;SDS011;1921;49.368;11.068;2022-11-03T02:55:28;50.53;;;43.97;;
3811;SDS011;1921;49.368;11.068;2022-11-03T03:03:33;48.40;;;44.30;;
3811;SDS011;1921;49.368;11.068;2022-11-03T03:06:07;47.60;;;43.20;;
3811;SDS011;1921;49.368;11.068;2022-11-03T03:08:38;48.43;;;43.57;;
3811;SDS011;1921;49.368;11.068;2022-11-03T03:11:13;48.50;;;43.80;;
3811;SDS011;1921;49.368;11.068;2022-11-03T03:13:40;46.20;;;42.40;;
3811;SDS011;1921;49.368;11.068;2022-11-03T03:19:23;46.60;;;42.70;;
3811;SDS011;1921;49.368;11.068;2022-11-03T03:21:58;47.43;;;42.97;;
3811;SDS011;1921;49.368;11.068;2022-11-03T03:28:14;47.07;;;42.77;;
3811;SDS011;1921;49.368;11.068;2022-11-03T03:30:47;46.63;;;42.90;;
3811;SDS011;1921;49.368;11.068;2022-11-03T03:33:15;46.87;;;43.07;;
3811;SDS011;1921;49.368;11.068;2022-11-03T03:35:43;47.10;;;42.80;;
3811;SDS011;1921;49.368;11.068;2022-11-03T03:38:14;46.07;;;42.37;;
3811;SDS011;1921;49.368;11.068;2022-11-03T03:40:45;47.00;;;42.57;;
3811;SDS011;1921;49.368;11.068;2022-11-03T03:43:17;46.67;;;42.60;;
3811;SDS011;1921;49.368;11.068;2022-11-03T03:45:45;45.97;;;42.30;;
3811;SDS011;1921;49.368;11.068;2022-11-03T03:48:15;48.00;;;42.80;;
3811;SDS011;1921;49.368;11.068;2022-11-03T03:50:41;48.40;;;44.10;;
3811;SDS011;1921;49.368;11.068;2022-11-03T03:53:11;47.43;;;43.43;;
3811;SDS011;1921;49.368;11.068;2022-11-03T03:55:40;46.40;;;42.60;;
3811;SDS011;1921;49.368;11.068;2022-11-03T03:58:09;47.10;;;43.20;;
3811;SDS011;1921;49.368;11.068;2022-11-03T04:00:38;46.63;;;42.83;;
3811;SDS011;1921;49.368;11.068;2022-11-03T04:03:06;48.97;;;44.13;;
3811;SDS011;1921;49.368;11.068;2022-11-03T04:05:48;46.83;;;42.73;;
3811;SDS011;1921;49.368;11.068;2022-11-03T04:08:15;46.60;;;42.80;;
3811;SDS011;1921;49.368;11.068;2022-11-03T04:10:41;47.23;;;43.23;;
3811;SDS011;1921;49.368;11.068;2022-11-03T04:13:27;47.07;;;43.13;;
3811;SDS011;1921;49.368;11.068;2022-11-03T04:16:11;45.60;;;42.00;;
3811;SDS011;1921;49.368;11.068;2022-11-03T04:18:55;45.87;;;42.27;;
3811;SDS011;1921;49.368;11.068;2022-11-03T04:21:39;47.20;;;43.27;;
3811;SDS011;1921;49.368;11.068;2022-11-03T04:24:47;45.37;;;41.60;;
3811;SDS011;1921;49.368;11.068;2022-11-03T04:27:20;45.80;;;41.90;;
3811;SDS011;1921;49.368;11.068;2022-11-03T04:30:16;46.50;;;42.80;;
3811;SDS011;1921;49.368;11.068;2022-11-03T04:32:45;47.77;;;42.80;;
3811;SDS011;1921;49.368;11.068;2022-11-03T04:37:50;46.63;;;42.83;;
3811;SDS011;1921;49.368;11.068;2022-11-03T04:40:22;46.70;;;43.00;;
3811;SDS011;1921;49.368;11.068;2022-11-03T04:42:49;46.40;;;42.50;;
3811;SDS011;1921;49.368;11.068;2022-11-03T04:45:30;47.47;;;43.07;;
3811;SDS011;1921;49.368;11.068;2022-11-03T04:48:02;47.43;;;43.43;;
3811;SDS011;1921;49.368;11.068;2022-11-03T04:50:37;46.33;;;42.07;;
3811;SDS011;1921;49.368;11.068;2022-11-03T04:53:16;45.80;;;42.20;;
3811;SDS011;1921;49.368;11.068;2022-11-03T04:55:44;47.17;;;43.27;;
3811;SDS011;1921;49.368;11.068;2022-11-03T04:58:33;46.40;;;42.50;;
3811;SDS011;1921;49.368;11.068;2022-11-03T05:00:59;45.90;;;42.10;;
3811;SDS011;1921;49.368;11.068;2022-11-03T05:03:33;45.40;;;41.80;;
3811;SDS011;1921;49.368;11.068;2022-11-03T05:06:08;45.60;;;41.87;;
3811;SDS011;1921;49.368;11.068;2022-11-03T05:08:43;46.70;;;42.80;;
3811;SDS011;1921;49.368;11.068;2022-11-03T05:11:14;48.30;;;43.87;;
3811;SDS011;1921;49.368;11.068;2022-11-03T05:13:52;47.20;;;43.20;;
3811;SDS011;1921;49.368;11.068;2022-11-03T05:16:21;45.97;;;42.33;;
3811;SDS011;1921;49.368;11.068;2022-11-03T05:18:48;46.83;;;42.97;;
3811;SDS011;1921;49.368;11.068;2022-11-03T05:21:15;47.47;;;43.37;;
3811;SDS011;1921;49.368;11.068;2022-11-03T05:23:46;48.13;;;44.13;;
3811;SDS011;1921;49.368;11.068;2022-11-03T05:26:27;50.77;;;45.37;;
3811;SDS011;1921;49.368;11.068;2022-11-03T05:29:04;47.47;;;43.37;;
3811;SDS011;1921;49.368;11.068;2022-11-03T05:31:39;45.60;;;41.90;;
3811;SDS011;1921;49.368;11.068;2022-11-03T05:36:58;46.43;;;42.60;;
3811;SDS011;1921;49.368;11.068;2022-11-03T05:39:35;46.10;;;41.97;;
3811;SDS011;1921;49.368;11.068;2022-11-03T05:44:54;46.07;;;42.30;;
3811;SDS011;1921;49.368;11.068;2022-11-03T05:47:27;45.90;;;42.20;;
3811;SDS011;1921;49.368;11.068;2022-11-03T05:50:23;45.93;;;42.27;;
3811;SDS011;1921;49.368;11.068;2022-11-03T05:52:52;47.30;;;43.30;;
3811;SDS011;1921;49.368;11.068;2022-11-03T05:55:32;48.10;;;43.53;;
3811;SDS011;1921;49.368;11.068;2022-11-03T05:58:21;48.13;;;43.83;;
3811;SDS011;1921;49.368;11.068;2022-11-03T06:04:00;48.53;;;43.80;;
3811;SDS011;1921;49.368;11.068;2022-11-03T06:06:43;50.37;;;45.93;;
3811;SDS011;1921;49.368;11.068;2022-11-03T06:09:18;49.03;;;44.10;;
3811;SDS011;1921;49.368;11.068;2022-11-03T06:11:49;193.23;;;60.10;;
3811;SDS011;1921;49.368;11.068;2022-11-03T06:14:19;54.07;;;44.50;;
3811;SDS011;1921;49.368;11.068;2022-11-03T06:22:21;52.37;;;46.10;;
3811;SDS011;1921;49.368;11.068;2022-11-03T06:25:19;51.93;;;46.47;;
3811;SDS011;1921;49.368;11.068;2022-11-03T06:28:01;50.27;;;45.40;;
3811;SDS011;1921;49.368;11.068;2022-11-03T06:30:31;52.47;;;46.10;;
3811;SDS011;1921;49.368;11.068;2022-11-03T06:33:05;50.97;;;45.80;;
3811;SDS011;1921;49.368;11.068;2022-11-03T06:35:38;59.10;;;46.67;;
3811;SDS011;1921;49.368;11.068;2022-11-03T06:38:07;49.87;;;45.27;;
3811;SDS011;1921;49.368;11.068;2022-11-03T06:40:43;51.37;;;46.70;;
3811;SDS011;1921;49.368;11.068;2022-11-03T06:46:21;49.20;;;44.67;;
3811;SDS011;1921;49.368;11.068;2022-11-03T06:48:53;51.97;;;46.57;;
3811;SDS011;1921;49.368;11.068;2022-11-03T06:51:29;48.97;;;44.47;;
3811;SDS011;1921;49.368;11.068;2022-11-03T06:53:59;59.17;;;46.10;;
3811;SDS011;1921;49.368;11.068;2022-11-03T06:56:30;50.33;;;45.40;;
3811;SDS011;1921;49.368;11.068;2022-11-03T06:59:00;50.70;;;45.30;;
3811;SDS011;1921;49.368;11.068;2022-11-03T07:01:30;57.43;;;46.10;;
3811;SDS011;1921;49.368;11.068;2022-11-03T07:04:21;48.70;;;44.20;;
3811;SDS011;1921;49.368;11.068;2022-11-03T07:06:47;49.27;;;44.77;;
3811;SDS011;1921;49.368;11.068;2022-11-03T07:09:15;48.77;;;44.23;;
3811;SDS011;1921;49.368;11.068;2022-11-03T07:11:50;49.53;;;44.50;;
3811;SDS011;1921;49.368;11.068;2022-11-03T07:14:20;51.30;;;46.13;;
3811;SDS011;1921;49.368;11.068;2022-11-03T07:16:53;50.93;;;46.00;;
3811;SDS011;1921;49.368;11.068;2022-11-03T07:19:32;50.27;;;45.60;;
3811;SDS011;1921;49.368;11.068;2022-11-03T07:22:03;48.93;;;44.13;;
3811;SDS011;1921;49.368;11.068;2022-11-03T07:24:43;215.17;;;50.93;;
3811;SDS011;1921;49.368;11.068;2022-11-03T07:29:46;49.50;;;44.70;;
3811;SDS011;1921;49.368;11.068;2022-11-03T07:32:18;90.73;;;49.50;;
3811;SDS011;1921;49.368;11.068;2022-11-03T07:34:51;73.13;;;46.30;;
3811;SDS011;1921;49.368;11.068;2022-11-03T07:37:22;51.47;;;46.13;;
3811;SDS011;1921;49.368;11.068;2022-11-03T07:39:49;51.77;;;46.67;;
3811;SDS011;1921;49.368;11.068;2022-11-03T07:42:18;52.70;;;47.27;;
3811;SDS011;1921;49.368;11.068;2022-11-03T07:44:46;52.40;;;47.23;;
3811;SDS011;1921;49.368;11.068;2022-11-03T07:47:20;50.23;;;45.63;;
3811;SDS011;1921;49.368;11.068;2022-11-03T07:49:52;52.60;;;47.00;;
3811;SDS011;1921;49.368;11.068;2022-11-03T07:52:21;50.80;;;45.77;;
3811;SDS011;1921;49.368;11.068;2022-11-03T07:54:49;53.13;;;47.77;;
3811;SDS011;1921;49.368;11.068;2022-11-03T07:57:22;52.87;;;47.40;;
3811;SDS011;1921;49.368;11.068;2022-11-03T07:59:55;50.77;;;45.73;;
3811;SDS011;1921;49.368;11.068;2022-11-03T08:02:30;51.93;;;46.80;;
3811;SDS011;1921;49.368;11.068;2022-11-03T08:04:57;52.00;;;46.60;;
3811;SDS011;1921;49.368;11.068;2022-11-03T08:07:24;52.70;;;47.20;;
3811;SDS011;1921;49.368;11.068;2022-11-03T08:09:52;53.60;;;47.90;;
3811;SDS011;1921;49.368;11.068;2022-11-03T08:12:18;51.97;;;46.73;;
3811;SDS011;1921;49.368;11.068;2022-11-03T08:14:44;54.33;;;48.23;;
3811;SDS011;1921;49.368;11.068;2022-11-03T08:17:11;54.43;;;48.70;;
3811;SDS011;1921;49.368;11.068;2022-11-03T08:19:36;55.90;;;49.80;;
3811;SDS011;1921;49.368;11.068;2022-11-03T08:22:02;54.63;;;48.57;;
3811;SDS011;1921;49.368;11.068;2022-11-03T08:24:28;54.50;;;48.50;;
3811;SDS011;1921;49.368;11.068;2022-11-03T08:26:54;55.00;;;48.50;;
3811;SDS011;1921;49.368;11.068;2022-11-03T08:29:20;55.00;;;48.97;;
3811;SDS011;1921;49.368;11.068;2022-11-03T08:31:45;55.47;;;49.13;;
3811;SDS011;1921;49.368;11.068;2022-11-03T08:34:11;54.67;;;47.93;;
3811;SDS011;1921;49.368;11.068;2022-11-03T08:36:37;57.27;;;48.60;;
3811;SDS011;1921;49.368;11.068;2022-11-03T08:39:03;55.47;;;48.30;;
3811;SDS011;1921;49.368;11.068;2022-11-03T08:41:29;55.50;;;48.77;;
3811;SDS011;1921;49.368;11.068;2022-11-03T08:43:55;54.63;;;48.50;;
3811;SDS011;1921;49.368;11.068;2022-11-03T08:46:21;55.30;;;48.40;;
3811;SDS011;1921;49.368;11.068;2022-11-03T08:48:47;57.33;;;49.10;;
3811;SDS011;1921;49.368;11.068;2022-11-03T08:51:14;56.80;;;49.17;;
3811;SDS011;1921;49.368;11.068;2022-11-03T08:53:40;57.70;;;48.83;;
3811;SDS011;1921;49.368;11.068;2022-11-03T08:56:06;57.47;;;48.70;;
3811;SDS011;1921;49.368;11.068;2022-11-03T08:58:33;56.90;;;48.93;;
3811;SDS011;1921;49.368;11.068;2022-11-03T09:00:58;58.23;;;47.40;;
3811;SDS011;1921;49.368;11.068;2022-11-03T09:03:24;58.63;;;49.00;;
3811;SDS011;1921;49.368;11.068;2022-11-03T09:05:50;60.63;;;49.20;;
3811;SDS011;1921;49.368;11.068;2022-11-03T09:08:16;56.67;;;48.70;;
3811;SDS011;1921;49.368;11.068;2022-11-03T09:10:41;60.03;;;48.43;;
3811;SDS011;1921;49.368;11.068;2022-11-03T09:13:07;62.40;;;48.50;;
3811;SDS011;1921;49.368;11.068;2022-11-03T09:15:33;58.20;;;49.40;;
3811;SDS011;1921;49.368;11.068;2022-11-03T09:17:59;59.03;;;48.60;;
3811;SDS011;1921;49.368;11.068;2022-11-03T09:20:25;56.00;;;48.60;;
3811;SDS011;1921;49.368;11.068;2022-11-03T09:22:51;55.03;;;48.23;;
3811;SDS011;1921;49.368;11.068;2022-11-03T09:25:17;56.53;;;48.20;;
3811;SDS011;1921;49.368;11.068;2022-11-03T09:27:43;56.10;;;48.43;;
3811;SDS011;1921;49.368;11.068;2022-11-03T09:30:09;55.70;;;48.73;;
3811;SDS011;1921;49.368;11.068;2022-11-03T09:32:36;55.30;;;48.53;;
3811;SDS011;1921;49.368;11.068;2022-11-03T09:35:02;57.33;;;48.13;;
3811;SDS011;1921;49.368;11.068;2022-11-03T09:37:29;54.97;;;48.30;;
3811;SDS011;1921;49.368;11.068;2022-11-03T09:39:55;58.60;;;48.60;;
3811;SDS011;1921;49.368;11.068;2022-11-03T09:42:21;55.90;;;48.23;;
3811;SDS011;1921;49.368;11.068;2022-11-03T09:44:48;55.00;;;48.10;;
3811;SDS011;1921;49.368;11.068;2022-11-03T09:47:23;61.73;;;48.70;;
3811;SDS011;1921;49.368;11.068;2022-11-03T09:49:57;56.30;;;48.90;;
3811;SDS011;1921;49.368;11.068;2022-11-03T09:52:23;56.57;;;47.97;;
3811;SDS011;1921;49.368;11.068;2022-11-03T09:54:50;55.30;;;48.33;;
3811;SDS011;1921;49.368;11.068;2022-11-03T09:57:21;55.03;;;48.00;;
3811;SDS011;1921;49.368;11.068;2022-11-03T09:59:48;54.63;;;47.87;;
3811;SDS011;1921;49.368;11.068;2022-11-03T10:02:25;55.30;;;48.37;;
3811;SDS011;1921;49.368;11.068;2022-11-03T10:05:00;62.93;;;48.90;;
3811;SDS011;1921;49.368;11.068;2022-11-03T10:07:26;60.00;;;50.17;;
3811;SDS011;1921;49.368;11.068;2022-11-03T10:09:55;57.20;;;48.80;;
3811;SDS011;1921;49.368;11.068;2022-11-03T10:12:25;58.97;;;48.97;;
3811;SDS011;1921;49.368;11.068;2022-11-03T10:15:00;55.30;;;49.20;;
3811;SDS011;1921;49.368;11.068;2022-11-03T10:17:27;56.10;;;49.20;;
3811;SDS011;1921;49.368;11.068;2022-11-03T10:19:55;61.20;;;49.20;;
3811;SDS011;1921;49.368;11.068;2022-11-03T10:22:22;58.60;;;48.90;;
3811;SDS011;1921;49.368;11.068;2022-11-03T10:24:47;55.57;;;48.50;;
3811;SDS011;1921;49.368;11.068;2022-11-03T10:27:21;57.90;;;49.10;;
3811;SDS011;1921;49.368;11.068;2022-11-03T10:30:09;58.00;;;49.70;;
3811;SDS011;1921;49.368;11.068;2022-11-03T10:32:36;57.83;;;48.67;;
3811;SDS011;1921;49.368;11.068;2022-11-03T10:35:30;59.53;;;49.00;;
3811;SDS011;1921;49.368;11.068;2022-11-03T10:38:23;57.70;;;49.53;;
3811;SDS011;1921;49.368;11.068;2022-11-03T10:44:04;58.90;;;49.33;;
3811;SDS011;1921;49.368;11.068;2022-11-03T10:46:54;57.60;;;49.17;;
3811;SDS011;1921;49.368;11.068;2022-11-03T10:49:26;58.60;;;49.47;;
3811;SDS011;1921;49.368;11.068;2022-11-03T10:51:56;60.87;;;49.90;;
3811;SDS011;1921;49.368;11.068;2022-11-03T10:54:49;59.40;;;49.23;;
3811;SDS011;1921;49.368;11.068;2022-11-03T10:57:16;62.90;;;49.77;;
3811;SDS011;1921;49.368;11.068;2022-11-03T10:59:43;57.87;;;49.60;;
3811;SDS011;1921;49.368;11.068;2022-11-03T11:02:23;61.90;;;49.63;;
3811;SDS011;1921;49.368;11.068;2022-11-03T11:04:58;57.70;;;49.57;;
3811;SDS011;1921;49.368;11.068;2022-11-03T11:18:07;57.63;;;49.50;;
3811;SDS011;1921;49.368;11.068;2022-11-03T11:20:34;59.33;;;49.80;;
3811;SDS011;1921;49.368;11.068;2022-11-03T11:36:34;59.13;;;49.57;;
3811;SDS011;1921;49.368;11.068;2022-11-03T11:39:09;63.10;;;49.73;;
3811;SDS011;1921;49.368;11.068;2022-11-03T11:47:46;56.73;;;49.20;;
3811;SDS011;1921;49.368;11.068;2022-11-03T11:52:43;58.07;;;49.90;;
3811;SDS011;1921;49.368;11.068;2022-11-03T11:55:31;56.73;;;48.90;;
3811;SDS011;1921;49.368;11.068;2022-11-03T11:58:16;57.13;;;49.40;;
3811;SDS011;1921;49.368;11.068;2022-11-03T12:01:02;60.63;;;50.00;;
3811;SDS011;1921;49.368;11.068;2022-11-03T12:03:43;56.93;;;49.50;;
3811;SDS011;1921;49.368;11.068;2022-11-03T12:06:14;56.73;;;49.80;;
3811;SDS011;1921;49.368;11.068;2022-11-03T12:08:40;58.30;;;50.27;;
3811;SDS011;1921;49.368;11.068;2022-11-03T12:11:06;60.17;;;50.90;;
3811;SDS011;1921;49.368;11.068;2022-11-03T12:16:28;63.80;;;50.87;;
3811;SDS011;1921;49.368;11.068;2022-11-03T12:22:05;59.97;;;50.87;;
3811;SDS011;1921;49.368;11.068;2022-11-03T12:25:00;60.33;;;50.83;;
3811;SDS011;1921;49.368;11.068;2022-11-03T12:29:58;62.90;;;50.30;;
3811;SDS011;1921;49.368;11.068;2022-11-03T12:32:29;58.03;;;49.93;;
3811;SDS011;1921;49.368;11.068;2022-11-03T12:34:55;59.17;;;50.47;;
3811;SDS011;1921;49.368;11.068;2022-11-03T12:37:21;59.70;;;50.00;;
3811;SDS011;1921;49.368;11.068;2022-11-03T12:39:47;56.63;;;49.80;;
3811;SDS011;1921;49.368;11.068;2022-11-03T12:42:13;57.60;;;50.70;;
3811;SDS011;1921;49.368;11.068;2022-11-03T12:44:38;57.63;;;49.57;;
3811;SDS011;1921;49.368;11.068;2022-11-03T12:47:04;56.70;;;49.60;;
3811;SDS011;1921;49.368;11.068;2022-11-03T12:49:30;57.07;;;49.70;;
3811;SDS011;1921;49.368;11.068;2022-11-03T12:51:56;56.70;;;49.83;;
3811;SDS011;1921;49.368;11.068;2022-11-03T12:54:29;56.20;;;49.67;;
3811;SDS011;1921;49.368;11.068;2022-11-03T12:56:55;60.20;;;50.37;;
3811;SDS011;1921;49.368;11.068;2022-11-03T12:59:21;56.33;;;49.30;;
3811;SDS011;1921;49.368;11.068;2022-11-03T13:01:47;55.93;;;49.00;;
3811;SDS011;1921;49.368;11.068;2022-11-03T13:04:12;57.03;;;49.70;;
3811;SDS011;1921;49.368;11.068;2022-11-03T13:06:38;57.60;;;50.13;;
3811;SDS011;1921;49.368;11.068;2022-11-03T13:09:04;67.43;;;51.33;;
3811;SDS011;1921;49.368;11.068;2022-11-03T13:11:30;58.13;;;49.80;;
3811;SDS011;1921;49.368;11.068;2022-11-03T13:14:14;58.60;;;50.80;;
3811;SDS011;1921;49.368;11.068;2022-11-03T13:16:39;58.20;;;49.87;;
3811;SDS011;1921;49.368;11.068;2022-11-03T13:19:05;61.40;;;51.20;;
3811;SDS011;1921;49.368;11.068;2022-11-03T13:21:31;57.30;;;49.93;;
3811;SDS011;1921;49.368;11.068;2022-11-03T13:23:56;55.97;;;49.63;;
3811;SDS011;1921;49.368;11.068;2022-11-03T13:26:22;63.33;;;50.03;;
3811;SDS011;1921;49.368;11.068;2022-11-03T13:28:48;56.37;;;49.43;;
3811;SDS011;1921;49.368;11.068;2022-11-03T13:31:14;60.13;;;49.90;;
3811;SDS011;1921;49.368;11.068;2022-11-03T13:33:39;56.77;;;49.90;;
3811;SDS011;1921;49.368;11.068;2022-11-03T13:36:05;60.30;;;50.07;;
3811;SDS011;1921;49.368;11.068;2022-11-03T13:38:31;62.80;;;50.53;;
3811;SDS011;1921;49.368;11.068;2022-11-03T13:40:57;57.17;;;49.60;;
3811;SDS011;1921;49.368;11.068;2022-11-03T13:43:22;62.00;;;51.10;;
3811;SDS011;1921;49.368;11.068;2022-11-03T13:45:48;56.20;;;50.10;;
3811;SDS011;1921;49.368;11.068;2022-11-03T13:48:14;59.50;;;51.23;;
3811;SDS011;1921;49.368;11.068;2022-11-03T13:50:42;59.33;;;51.50;;
3811;SDS011;1921;49.368;11.068;2022-11-03T13:53:09;67.70;;;51.17;;
3811;SDS011;1921;49.368;11.068;2022-11-03T13:55:35;58.80;;;50.63;;
3811;SDS011;1921;49.368;11.068;2022-11-03T13:58:01;60.30;;;50.47;;
3811;SDS011;1921;49.368;11.068;2022-11-03T14:00:27;58.93;;;50.83;;
3811;SDS011;1921;49.368;11.068;2022-11-03T14:02:52;59.30;;;50.97;;
3811;SDS011;1921;49.368;11.068;2022-11-03T14:05:18;70.10;;;51.00;;
3811;SDS011;1921;49.368;11.068;2022-11-03T14:07:44;61.23;;;51.63;;
3811;SDS011;1921;49.368;11.068;2022-11-03T14:10:09;64.40;;;51.50;;
3811;SDS011;1921;49.368;11.068;2022-11-03T14:12:35;60.90;;;50.93;;
3811;SDS011;1921;49.368;11.068;2022-11-03T14:15:03;63.83;;;51.60;;
3811;SDS011;1921;49.368;11.068;2022-11-03T14:17:35;58.93;;;51.57;;
3811;SDS011;1921;49.368;11.068;2022-11-03T14:20:03;69.50;;;51.60;;
3811;SDS011;1921;49.368;11.068;2022-11-03T14:22:31;63.90;;;51.80;;
3811;SDS011;1921;49.368;11.068;2022-11-03T14:24:57;66.40;;;51.80;;
3811;SDS011;1921;49.368;11.068;2022-11-03T14:27:23;65.97;;;53.20;;
3811;SDS011;1921;49.368;11.068;2022-11-03T14:29:49;57.83;;;50.83;;
3811;SDS011;1921;49.368;11.068;2022-11-03T14:32:15;58.20;;;48.90;;
3811;SDS011;1921;49.368;11.068;2022-11-03T14:34:42;59.90;;;50.70;;
3811;SDS011;1921;49.368;11.068;2022-11-03T14:37:08;61.93;;;50.10;;
3811;SDS011;1921;49.368;11.068;2022-11-03T14:39:35;66.57;;;52.50;;
3811;SDS011;1921;49.368;11.068;2022-11-03T14:42:04;61.20;;;51.83;;
3811;SDS011;1921;49.368;11.068;2022-11-03T14:44:40;63.67;;;52.70;;
3811;SDS011;1921;49.368;11.068;2022-11-03T14:47:08;66.77;;;54.13;;
3811;SDS011;1921;49.368;11.068;2022-11-03T14:49:36;61.90;;;51.10;;
3811;SDS011;1921;49.368;11.068;2022-11-03T14:52:02;66.07;;;52.40;;
3811;SDS011;1921;49.368;11.068;2022-11-03T14:54:30;65.80;;;51.57;;
3811;SDS011;1921;49.368;11.068;2022-11-03T14:56:59;65.77;;;51.63;;
3811;SDS011;1921;49.368;11.068;2022-11-03T14:59:24;63.13;;;51.07;;
3811;SDS011;1921;49.368;11.068;2022-11-03T15:01:51;65.03;;;52.57;;
3811;SDS011;1921;49.368;11.068;2022-11-03T15:04:17;67.73;;;52.30;;
3811;SDS011;1921;49.368;11.068;2022-11-03T15:06:44;79.47;;;53.30;;
3811;SDS011;1921;49.368;11.068;2022-11-03T15:09:10;61.70;;;51.77;;
3811;SDS011;1921;49.368;11.068;2022-11-03T15:11:38;55.97;;;49.97;;
3811;SDS011;1921;49.368;11.068;2022-11-03T15:14:08;62.73;;;51.70;;
3811;SDS011;1921;49.368;11.068;2022-11-03T15:16:33;58.40;;;51.87;;
3811;SDS011;1921;49.368;11.068;2022-11-03T15:19:00;64.53;;;52.10;;
3811;SDS011;1921;49.368;11.068;2022-11-03T15:21:27;60.70;;;51.77;;
3811;SDS011;1921;49.368;11.068;2022-11-03T15:23:54;63.57;;;53.00;;
3811;SDS011;1921;49.368;11.068;2022-11-03T15:26:20;58.70;;;51.07;;
3811;SDS011;1921;49.368;11.068;2022-11-03T15:28:45;64.90;;;52.63;;
3811;SDS011;1921;49.368;11.068;2022-11-03T15:31:11;60.23;;;50.87;;
3811;SDS011;1921;49.368;11.068;2022-11-03T15:33:37;60.67;;;51.60;;
3811;SDS011;1921;49.368;11.068;2022-11-03T15:36:03;59.10;;;50.57;;
3811;SDS011;1921;49.368;11.068;2022-11-03T15:38:30;62.20;;;52.43;;
3811;SDS011;1921;49.368;11.068;2022-11-03T15:40:57;72.60;;;52.87;;
3811;SDS011;1921;49.368;11.068;2022-11-03T15:43:46;61.23;;;52.07;;
3811;SDS011;1921;49.368;11.068;2022-11-03T15:46:14;63.33;;;52.23;;
3811;SDS011;1921;49.368;11.068;2022-11-03T15:48:42;62.37;;;52.43;;
3811;SDS011;1921;49.368;11.068;2022-11-03T15:51:08;66.57;;;51.73;;
3811;SDS011;1921;49.368;11.068;2022-11-03T15:53:35;63.30;;;52.30;;
3811;SDS011;1921;49.368;11.068;2022-11-03T15:56:00;63.80;;;51.50;;
3811;SDS011;1921;49.368;11.068;2022-11-03T15:58:27;60.27;;;53.00;;
3811;SDS011;1921;49.368;11.068;2022-11-03T16:00:55;63.27;;;51.53;;
3811;SDS011;1921;49.368;11.068;2022-11-03T16:03:20;65.63;;;52.47;;
3811;SDS011;1921;49.368;11.068;2022-11-03T16:05:46;63.80;;;51.67;;
3811;SDS011;1921;49.368;11.068;2022-11-03T16:08:12;59.63;;;52.10;;
3811;SDS011;1921;49.368;11.068;2022-11-03T16:10:37;60.60;;;51.10;;
3811;SDS011;1921;49.368;11.068;2022-11-03T16:13:03;56.10;;;50.00;;
3811;SDS011;1921;49.368;11.068;2022-11-03T16:15:29;65.23;;;51.63;;
3811;SDS011;1921;49.368;11.068;2022-11-03T16:17:54;56.80;;;49.80;;
3811;SDS011;1921;49.368;11.068;2022-11-03T16:20:26;57.03;;;50.47;;
3811;SDS011;1921;49.368;11.068;2022-11-03T16:22:56;55.63;;;49.60;;
3811;SDS011;1921;49.368;11.068;2022-11-03T16:25:21;58.43;;;50.20;;
3811;SDS011;1921;49.368;11.068;2022-11-03T16:27:47;54.87;;;48.97;;
3811;SDS011;1921;49.368;11.068;2022-11-03T16:30:13;64.90;;;49.57;;